Terminal Aerodrome Forecast
Issued by NWS

Home | Current Version | Previous Version | Text Only | Print | Product List | Glossary On
Versions: 1 2 3 4 5 6 7 8 9 10 11 12 13 14
881
FTUS44 KTSA 230520
TAFBVO
TAF
KBVO 230520Z 2306/2406 13009KT P6SM OVC035
      TEMPO 2306/2310 OVC025
     FM231100 14012G20KT P6SM SCT025
     FM231600 17018G28KT P6SM SCT060
     FM240000 17012G20KT P6SM SCT250=

USA.gov is the U.S. government's official web portal to all federal, state and local government web resources and services.